sensor_id;sensor_type;location;lat;lon;timestamp;P1;durP1;ratioP1;P2;durP2;ratioP2
76552;SDS011;65395;53.168;18.156;2022-12-29T00:02:18;12.20;;;7.50;;
76552;SDS011;65395;53.168;18.156;2022-12-29T00:04:45;13.70;;;7.40;;
76552;SDS011;65395;53.168;18.156;2022-12-29T00:07:12;14.30;;;8.20;;
76552;SDS011;65395;53.168;18.156;2022-12-29T00:09:39;12.40;;;7.60;;
76552;SDS011;65395;53.168;18.156;2022-12-29T00:12:05;13.30;;;7.80;;
76552;SDS011;65395;53.168;18.156;2022-12-29T00:14:32;14.00;;;7.30;;
76552;SDS011;65395;53.168;18.156;2022-12-29T00:17:09;16.10;;;8.40;;
76552;SDS011;65395;53.168;18.156;2022-12-29T00:19:35;16.60;;;8.70;;
76552;SDS011;65395;53.168;18.156;2022-12-29T00:22:13;15.40;;;8.60;;
76552;SDS011;65395;53.168;18.156;2022-12-29T00:24:50;14.90;;;7.60;;
76552;SDS011;65395;53.168;18.156;2022-12-29T00:27:28;12.90;;;7.90;;
76552;SDS011;65395;53.168;18.156;2022-12-29T00:30:09;12.80;;;8.10;;
76552;SDS011;65395;53.168;18.156;2022-12-29T00:32:47;12.40;;;7.60;;
76552;SDS011;65395;53.168;18.156;2022-12-29T00:35:27;14.30;;;8.10;;
76552;SDS011;65395;53.168;18.156;2022-12-29T00:37:57;15.50;;;7.40;;
76552;SDS011;65395;53.168;18.156;2022-12-29T00:40:37;14.10;;;7.90;;
76552;SDS011;65395;53.168;18.156;2022-12-29T00:43:14;13.00;;;8.00;;
76552;SDS011;65395;53.168;18.156;2022-12-29T00:45:51;16.00;;;8.30;;
76552;SDS011;65395;53.168;18.156;2022-12-29T00:48:17;11.80;;;7.40;;
76552;SDS011;65395;53.168;18.156;2022-12-29T00:51:04;11.40;;;6.50;;
76552;SDS011;65395;53.168;18.156;2022-12-29T00:53:32;10.90;;;6.30;;
76552;SDS011;65395;53.168;18.156;2022-12-29T00:56:00;11.60;;;5.90;;
76552;SDS011;65395;53.168;18.156;2022-12-29T00:58:27;9.20;;;5.20;;
76552;SDS011;65395;53.168;18.156;2022-12-29T01:01:02;11.40;;;5.60;;
76552;SDS011;65395;53.168;18.156;2022-12-29T01:03:32;10.40;;;6.10;;
76552;SDS011;65395;53.168;18.156;2022-12-29T01:06:00;12.80;;;7.00;;
76552;SDS011;65395;53.168;18.156;2022-12-29T01:08:28;15.00;;;7.30;;
76552;SDS011;65395;53.168;18.156;2022-12-29T01:10:59;11.80;;;6.70;;
76552;SDS011;65395;53.168;18.156;2022-12-29T01:13:27;10.20;;;6.00;;
76552;SDS011;65395;53.168;18.156;2022-12-29T01:15:54;12.90;;;6.30;;
76552;SDS011;65395;53.168;18.156;2022-12-29T01:18:22;12.20;;;5.40;;
76552;SDS011;65395;53.168;18.156;2022-12-29T01:20:49;10.60;;;5.70;;
76552;SDS011;65395;53.168;18.156;2022-12-29T01:23:17;8.80;;;5.30;;
76552;SDS011;65395;53.168;18.156;2022-12-29T01:25:45;10.50;;;6.10;;
76552;SDS011;65395;53.168;18.156;2022-12-29T01:28:11;10.40;;;5.50;;
76552;SDS011;65395;53.168;18.156;2022-12-29T01:30:38;10.20;;;5.00;;
76552;SDS011;65395;53.168;18.156;2022-12-29T01:33:05;11.20;;;5.10;;
76552;SDS011;65395;53.168;18.156;2022-12-29T01:35:31;10.30;;;5.40;;
76552;SDS011;65395;53.168;18.156;2022-12-29T01:37:58;9.60;;;5.30;;
76552;SDS011;65395;53.168;18.156;2022-12-29T01:40:25;9.00;;;5.00;;
76552;SDS011;65395;53.168;18.156;2022-12-29T01:42:52;9.90;;;5.30;;
76552;SDS011;65395;53.168;18.156;2022-12-29T01:45:19;11.40;;;5.50;;
76552;SDS011;65395;53.168;18.156;2022-12-29T01:47:49;8.20;;;5.10;;
76552;SDS011;65395;53.168;18.156;2022-12-29T01:50:22;10.00;;;5.40;;
76552;SDS011;65395;53.168;18.156;2022-12-29T01:52:55;9.90;;;5.40;;
76552;SDS011;65395;53.168;18.156;2022-12-29T01:55:27;11.90;;;5.50;;
76552;SDS011;65395;53.168;18.156;2022-12-29T01:57:58;9.60;;;6.80;;
76552;SDS011;65395;53.168;18.156;2022-12-29T02:00:30;13.10;;;7.90;;
76552;SDS011;65395;53.168;18.156;2022-12-29T02:02:58;15.70;;;8.40;;
76552;SDS011;65395;53.168;18.156;2022-12-29T02:05:33;12.00;;;7.50;;
76552;SDS011;65395;53.168;18.156;2022-12-29T02:08:12;14.80;;;8.60;;
76552;SDS011;65395;53.168;18.156;2022-12-29T02:10:39;16.10;;;8.40;;
76552;SDS011;65395;53.168;18.156;2022-12-29T02:13:08;13.90;;;8.30;;
76552;SDS011;65395;53.168;18.156;2022-12-29T02:15:44;12.90;;;6.40;;
76552;SDS011;65395;53.168;18.156;2022-12-29T02:21:19;9.90;;;6.40;;
76552;SDS011;65395;53.168;18.156;2022-12-29T02:24:05;11.40;;;6.60;;
76552;SDS011;65395;53.168;18.156;2022-12-29T02:27:01;11.50;;;6.70;;
76552;SDS011;65395;53.168;18.156;2022-12-29T02:32:42;11.20;;;7.10;;
76552;SDS011;65395;53.168;18.156;2022-12-29T02:41:02;8.40;;;4.90;;
76552;SDS011;65395;53.168;18.156;2022-12-29T02:43:39;7.80;;;4.70;;
76552;SDS011;65395;53.168;18.156;2022-12-29T02:49:01;8.50;;;4.60;;
76552;SDS011;65395;53.168;18.156;2022-12-29T02:51:39;7.20;;;4.30;;
76552;SDS011;65395;53.168;18.156;2022-12-29T02:54:16;9.10;;;4.70;;
76552;SDS011;65395;53.168;18.156;2022-12-29T02:56:54;8.30;;;4.80;;
76552;SDS011;65395;53.168;18.156;2022-12-29T02:59:21;9.00;;;4.90;;
76552;SDS011;65395;53.168;18.156;2022-12-29T03:04:49;6.10;;;4.10;;
76552;SDS011;65395;53.168;18.156;2022-12-29T03:07:52;8.70;;;4.90;;
76552;SDS011;65395;53.168;18.156;2022-12-29T03:13:30;7.90;;;4.60;;
76552;SDS011;65395;53.168;18.156;2022-12-29T03:16:28;9.80;;;4.50;;
76552;SDS011;65395;53.168;18.156;2022-12-29T03:22:01;8.50;;;4.80;;
76552;SDS011;65395;53.168;18.156;2022-12-29T03:24:43;10.10;;;5.50;;
76552;SDS011;65395;53.168;18.156;2022-12-29T03:27:23;12.30;;;5.90;;
76552;SDS011;65395;53.168;18.156;2022-12-29T03:29:57;9.70;;;5.90;;
76552;SDS011;65395;53.168;18.156;2022-12-29T03:32:30;10.60;;;6.60;;
76552;SDS011;65395;53.168;18.156;2022-12-29T03:35:00;9.40;;;5.80;;
76552;SDS011;65395;53.168;18.156;2022-12-29T03:37:30;8.70;;;6.00;;
76552;SDS011;65395;53.168;18.156;2022-12-29T03:40:03;10.40;;;6.00;;
76552;SDS011;65395;53.168;18.156;2022-12-29T03:42:32;8.80;;;8.60;;
76552;SDS011;65395;53.168;18.156;2022-12-29T03:45:03;12.70;;;5.60;;
76552;SDS011;65395;53.168;18.156;2022-12-29T03:47:31;7.50;;;5.30;;
76552;SDS011;65395;53.168;18.156;2022-12-29T03:49:58;7.80;;;4.90;;
76552;SDS011;65395;53.168;18.156;2022-12-29T03:52:24;9.70;;;4.80;;
76552;SDS011;65395;53.168;18.156;2022-12-29T03:54:52;8.20;;;4.20;;
76552;SDS011;65395;53.168;18.156;2022-12-29T03:57:18;9.50;;;5.30;;
76552;SDS011;65395;53.168;18.156;2022-12-29T03:59:51;9.60;;;5.50;;
76552;SDS011;65395;53.168;18.156;2022-12-29T04:02:18;10.00;;;6.60;;
76552;SDS011;65395;53.168;18.156;2022-12-29T04:04:45;11.50;;;6.60;;
76552;SDS011;65395;53.168;18.156;2022-12-29T04:07:12;10.20;;;6.80;;
76552;SDS011;65395;53.168;18.156;2022-12-29T04:09:40;9.30;;;6.90;;
76552;SDS011;65395;53.168;18.156;2022-12-29T04:12:08;9.10;;;6.90;;
76552;SDS011;65395;53.168;18.156;2022-12-29T04:14:35;13.60;;;7.40;;
76552;SDS011;65395;53.168;18.156;2022-12-29T04:17:02;10.60;;;6.70;;
76552;SDS011;65395;53.168;18.156;2022-12-29T04:19:29;12.10;;;6.80;;
76552;SDS011;65395;53.168;18.156;2022-12-29T04:21:56;11.80;;;6.30;;
76552;SDS011;65395;53.168;18.156;2022-12-29T04:24:23;10.50;;;6.30;;
76552;SDS011;65395;53.168;18.156;2022-12-29T04:26:50;8.40;;;6.20;;
76552;SDS011;65395;53.168;18.156;2022-12-29T04:29:27;8.10;;;6.30;;
76552;SDS011;65395;53.168;18.156;2022-12-29T04:32:05;9.50;;;6.00;;
76552;SDS011;65395;53.168;18.156;2022-12-29T04:34:33;9.40;;;6.20;;
76552;SDS011;65395;53.168;18.156;2022-12-29T04:37:00;12.20;;;6.60;;
76552;SDS011;65395;53.168;18.156;2022-12-29T04:39:28;8.80;;;6.00;;
76552;SDS011;65395;53.168;18.156;2022-12-29T04:41:54;16.10;;;6.90;;
76552;SDS011;65395;53.168;18.156;2022-12-29T04:44:25;10.10;;;6.10;;
76552;SDS011;65395;53.168;18.156;2022-12-29T04:47:02;12.80;;;6.50;;
76552;SDS011;65395;53.168;18.156;2022-12-29T04:49:39;10.10;;;6.20;;
76552;SDS011;65395;53.168;18.156;2022-12-29T04:52:16;9.80;;;6.60;;
76552;SDS011;65395;53.168;18.156;2022-12-29T04:54:44;10.40;;;6.80;;
76552;SDS011;65395;53.168;18.156;2022-12-29T04:57:16;9.90;;;7.60;;
76552;SDS011;65395;53.168;18.156;2022-12-29T04:59:47;10.60;;;6.60;;
76552;SDS011;65395;53.168;18.156;2022-12-29T05:02:15;11.90;;;6.50;;
76552;SDS011;65395;53.168;18.156;2022-12-29T05:04:44;11.10;;;6.70;;
76552;SDS011;65395;53.168;18.156;2022-12-29T05:07:12;9.60;;;6.30;;
76552;SDS011;65395;53.168;18.156;2022-12-29T05:09:39;10.60;;;6.00;;
76552;SDS011;65395;53.168;18.156;2022-12-29T05:12:06;10.20;;;6.20;;
76552;SDS011;65395;53.168;18.156;2022-12-29T05:14:35;9.50;;;6.40;;
76552;SDS011;65395;53.168;18.156;2022-12-29T05:17:03;11.40;;;7.00;;
76552;SDS011;65395;53.168;18.156;2022-12-29T05:19:30;9.30;;;7.00;;
76552;SDS011;65395;53.168;18.156;2022-12-29T05:21:57;8.10;;;5.90;;
76552;SDS011;65395;53.168;18.156;2022-12-29T05:24:24;9.20;;;5.70;;
76552;SDS011;65395;53.168;18.156;2022-12-29T05:26:53;9.90;;;5.90;;
76552;SDS011;65395;53.168;18.156;2022-12-29T05:29:29;11.10;;;5.60;;
76552;SDS011;65395;53.168;18.156;2022-12-29T05:31:57;9.90;;;5.60;;
76552;SDS011;65395;53.168;18.156;2022-12-29T05:34:24;9.10;;;5.60;;
76552;SDS011;65395;53.168;18.156;2022-12-29T05:36:51;10.90;;;6.10;;
76552;SDS011;65395;53.168;18.156;2022-12-29T05:39:18;10.70;;;6.70;;
76552;SDS011;65395;53.168;18.156;2022-12-29T05:41:50;10.20;;;6.80;;
76552;SDS011;65395;53.168;18.156;2022-12-29T05:44:26;8.00;;;5.90;;
76552;SDS011;65395;53.168;18.156;2022-12-29T05:47:09;11.90;;;6.20;;
76552;SDS011;65395;53.168;18.156;2022-12-29T05:49:46;9.60;;;5.60;;
76552;SDS011;65395;53.168;18.156;2022-12-29T05:52:27;11.60;;;6.40;;
76552;SDS011;65395;53.168;18.156;2022-12-29T05:54:54;11.40;;;6.30;;
76552;SDS011;65395;53.168;18.156;2022-12-29T05:57:23;10.20;;;6.40;;
76552;SDS011;65395;53.168;18.156;2022-12-29T05:59:58;9.70;;;6.20;;
76552;SDS011;65395;53.168;18.156;2022-12-29T06:02:25;10.50;;;7.10;;
76552;SDS011;65395;53.168;18.156;2022-12-29T06:04:52;10.30;;;7.20;;
76552;SDS011;65395;53.168;18.156;2022-12-29T06:07:19;11.70;;;6.90;;
76552;SDS011;65395;53.168;18.156;2022-12-29T06:09:47;11.10;;;7.40;;
76552;SDS011;65395;53.168;18.156;2022-12-29T06:12:14;15.40;;;8.30;;
76552;SDS011;65395;53.168;18.156;2022-12-29T06:14:43;14.40;;;8.50;;
76552;SDS011;65395;53.168;18.156;2022-12-29T06:17:11;11.00;;;7.90;;
76552;SDS011;65395;53.168;18.156;2022-12-29T06:19:38;13.40;;;7.50;;
76552;SDS011;65395;53.168;18.156;2022-12-29T06:22:04;10.80;;;6.10;;
76552;SDS011;65395;53.168;18.156;2022-12-29T06:24:34;8.90;;;4.90;;
76552;SDS011;65395;53.168;18.156;2022-12-29T06:27:00;8.50;;;4.70;;
76552;SDS011;65395;53.168;18.156;2022-12-29T06:29:28;7.10;;;3.70;;
76552;SDS011;65395;53.168;18.156;2022-12-29T06:31:56;9.00;;;5.00;;
76552;SDS011;65395;53.168;18.156;2022-12-29T06:34:25;7.20;;;4.50;;
76552;SDS011;65395;53.168;18.156;2022-12-29T06:36:51;10.30;;;4.80;;
76552;SDS011;65395;53.168;18.156;2022-12-29T06:39:19;9.30;;;5.20;;
76552;SDS011;65395;53.168;18.156;2022-12-29T06:41:58;10.10;;;5.40;;
76552;SDS011;65395;53.168;18.156;2022-12-29T06:44:35;8.80;;;4.80;;
76552;SDS011;65395;53.168;18.156;2022-12-29T06:47:05;10.00;;;5.00;;
76552;SDS011;65395;53.168;18.156;2022-12-29T06:49:32;9.50;;;5.20;;
76552;SDS011;65395;53.168;18.156;2022-12-29T06:51:59;11.60;;;5.80;;
76552;SDS011;65395;53.168;18.156;2022-12-29T06:54:26;9.90;;;4.50;;
76552;SDS011;65395;53.168;18.156;2022-12-29T06:56:53;8.00;;;3.90;;
76552;SDS011;65395;53.168;18.156;2022-12-29T06:59:20;6.70;;;3.20;;
76552;SDS011;65395;53.168;18.156;2022-12-29T07:01:46;6.50;;;3.10;;
76552;SDS011;65395;53.168;18.156;2022-12-29T07:04:13;6.50;;;3.40;;
76552;SDS011;65395;53.168;18.156;2022-12-29T07:06:40;7.50;;;3.40;;
76552;SDS011;65395;53.168;18.156;2022-12-29T07:09:07;5.40;;;3.00;;
76552;SDS011;65395;53.168;18.156;2022-12-29T07:11:34;7.00;;;3.10;;
76552;SDS011;65395;53.168;18.156;2022-12-29T07:14:02;6.00;;;2.90;;
76552;SDS011;65395;53.168;18.156;2022-12-29T07:16:29;5.80;;;3.10;;
76552;SDS011;65395;53.168;18.156;2022-12-29T07:18:56;5.40;;;2.60;;
76552;SDS011;65395;53.168;18.156;2022-12-29T07:21:25;5.80;;;3.20;;
76552;SDS011;65395;53.168;18.156;2022-12-29T07:23:53;4.60;;;2.80;;
76552;SDS011;65395;53.168;18.156;2022-12-29T07:26:20;4.60;;;2.70;;
76552;SDS011;65395;53.168;18.156;2022-12-29T07:28:46;6.00;;;3.00;;
76552;SDS011;65395;53.168;18.156;2022-12-29T07:31:15;6.30;;;3.10;;
76552;SDS011;65395;53.168;18.156;2022-12-29T07:33:43;8.50;;;3.30;;
76552;SDS011;65395;53.168;18.156;2022-12-29T07:36:11;5.30;;;3.40;;
76552;SDS011;65395;53.168;18.156;2022-12-29T07:38:38;5.90;;;3.20;;
76552;SDS011;65395;53.168;18.156;2022-12-29T07:41:05;7.60;;;3.40;;
76552;SDS011;65395;53.168;18.156;2022-12-29T07:43:32;6.00;;;3.30;;
76552;SDS011;65395;53.168;18.156;2022-12-29T07:46:19;6.80;;;3.10;;
76552;SDS011;65395;53.168;18.156;2022-12-29T07:48:46;5.20;;;2.90;;
76552;SDS011;65395;53.168;18.156;2022-12-29T07:51:13;5.70;;;2.60;;
76552;SDS011;65395;53.168;18.156;2022-12-29T07:53:40;4.30;;;2.30;;
76552;SDS011;65395;53.168;18.156;2022-12-29T07:56:07;5.20;;;2.70;;
76552;SDS011;65395;53.168;18.156;2022-12-29T07:58:33;8.50;;;2.90;;
76552;SDS011;65395;53.168;18.156;2022-12-29T08:01:00;6.70;;;3.40;;
76552;SDS011;65395;53.168;18.156;2022-12-29T08:03:27;5.80;;;3.10;;
76552;SDS011;65395;53.168;18.156;2022-12-29T08:05:53;10.90;;;4.00;;
76552;SDS011;65395;53.168;18.156;2022-12-29T08:08:20;8.30;;;4.60;;
76552;SDS011;65395;53.168;18.156;2022-12-29T08:10:47;8.90;;;4.50;;
76552;SDS011;65395;53.168;18.156;2022-12-29T08:13:14;7.40;;;4.30;;
76552;SDS011;65395;53.168;18.156;2022-12-29T08:15:40;7.70;;;3.90;;
76552;SDS011;65395;53.168;18.156;2022-12-29T08:18:07;9.60;;;3.50;;
76552;SDS011;65395;53.168;18.156;2022-12-29T08:20:34;5.80;;;3.00;;
76552;SDS011;65395;53.168;18.156;2022-12-29T08:23:01;4.50;;;2.90;;
76552;SDS011;65395;53.168;18.156;2022-12-29T08:25:28;10.00;;;3.60;;
76552;SDS011;65395;53.168;18.156;2022-12-29T08:27:54;8.40;;;3.70;;
76552;SDS011;65395;53.168;18.156;2022-12-29T08:30:21;7.60;;;4.40;;
76552;SDS011;65395;53.168;18.156;2022-12-29T08:32:48;9.30;;;4.50;;
76552;SDS011;65395;53.168;18.156;2022-12-29T08:35:14;8.20;;;4.20;;
76552;SDS011;65395;53.168;18.156;2022-12-29T08:37:41;7.00;;;3.90;;
76552;SDS011;65395;53.168;18.156;2022-12-29T08:40:08;7.70;;;3.90;;
76552;SDS011;65395;53.168;18.156;2022-12-29T08:42:35;8.40;;;4.40;;
76552;SDS011;65395;53.168;18.156;2022-12-29T08:45:02;7.60;;;4.00;;
76552;SDS011;65395;53.168;18.156;2022-12-29T08:47:29;6.70;;;4.00;;
76552;SDS011;65395;53.168;18.156;2022-12-29T08:49:56;6.30;;;3.20;;
76552;SDS011;65395;53.168;18.156;2022-12-29T08:52:22;6.40;;;3.10;;
76552;SDS011;65395;53.168;18.156;2022-12-29T08:54:49;5.50;;;3.20;;
76552;SDS011;65395;53.168;18.156;2022-12-29T08:57:16;7.30;;;3.90;;
76552;SDS011;65395;53.168;18.156;2022-12-29T08:59:56;8.90;;;3.50;;
76552;SDS011;65395;53.168;18.156;2022-12-29T09:02:23;6.90;;;3.10;;
76552;SDS011;65395;53.168;18.156;2022-12-29T09:04:50;6.60;;;3.30;;
76552;SDS011;65395;53.168;18.156;2022-12-29T09:07:17;6.30;;;3.10;;
76552;SDS011;65395;53.168;18.156;2022-12-29T09:09:44;5.20;;;2.80;;
76552;SDS011;65395;53.168;18.156;2022-12-29T09:12:11;7.00;;;3.20;;
76552;SDS011;65395;53.168;18.156;2022-12-29T09:14:37;6.40;;;3.00;;
76552;SDS011;65395;53.168;18.156;2022-12-29T09:17:04;5.60;;;2.90;;
76552;SDS011;65395;53.168;18.156;2022-12-29T09:19:41;7.70;;;3.00;;
76552;SDS011;65395;53.168;18.156;2022-12-29T09:22:08;4.80;;;2.60;;
76552;SDS011;65395;53.168;18.156;2022-12-29T09:24:34;5.50;;;2.50;;
76552;SDS011;65395;53.168;18.156;2022-12-29T09:27:01;5.20;;;2.70;;
76552;SDS011;65395;53.168;18.156;2022-12-29T09:29:28;4.20;;;2.40;;
76552;SDS011;65395;53.168;18.156;2022-12-29T09:31:55;5.50;;;2.80;;
76552;SDS011;65395;53.168;18.156;2022-12-29T09:34:21;7.20;;;2.70;;
76552;SDS011;65395;53.168;18.156;2022-12-29T09:36:48;4.50;;;2.30;;
76552;SDS011;65395;53.168;18.156;2022-12-29T09:39:15;6.50;;;2.40;;
76552;SDS011;65395;53.168;18.156;2022-12-29T09:41:47;7.00;;;2.80;;
76552;SDS011;65395;53.168;18.156;2022-12-29T09:44:23;4.80;;;2.80;;
76552;SDS011;65395;53.168;18.156;2022-12-29T09:46:57;4.80;;;2.70;;
76552;SDS011;65395;53.168;18.156;2022-12-29T09:49:28;4.60;;;2.60;;
76552;SDS011;65395;53.168;18.156;2022-12-29T09:52:11;6.10;;;2.90;;
76552;SDS011;65395;53.168;18.156;2022-12-29T09:54:50;6.60;;;3.90;;
76552;SDS011;65395;53.168;18.156;2022-12-29T09:57:24;7.50;;;3.00;;
76552;SDS011;65395;53.168;18.156;2022-12-29T09:59:55;7.10;;;3.50;;
76552;SDS011;65395;53.168;18.156;2022-12-29T10:02:36;7.60;;;3.70;;
76552;SDS011;65395;53.168;18.156;2022-12-29T10:05:17;6.40;;;3.50;;
76552;SDS011;65395;53.168;18.156;2022-12-29T10:10:57;7.10;;;3.70;;
76552;SDS011;65395;53.168;18.156;2022-12-29T10:13:41;8.20;;;3.50;;
76552;SDS011;65395;53.168;18.156;2022-12-29T10:16:20;6.50;;;3.30;;
76552;SDS011;65395;53.168;18.156;2022-12-29T10:19:04;6.70;;;3.10;;
76552;SDS011;65395;53.168;18.156;2022-12-29T10:21:47;6.60;;;2.90;;
76552;SDS011;65395;53.168;18.156;2022-12-29T10:24:24;5.20;;;3.40;;
76552;SDS011;65395;53.168;18.156;2022-12-29T10:26:54;6.30;;;3.20;;
76552;SDS011;65395;53.168;18.156;2022-12-29T10:29:25;8.10;;;3.50;;
76552;SDS011;65395;53.168;18.156;2022-12-29T10:31:59;7.60;;;3.40;;
76552;SDS011;65395;53.168;18.156;2022-12-29T10:34:34;6.80;;;3.10;;
76552;SDS011;65395;53.168;18.156;2022-12-29T10:37:08;7.30;;;2.70;;
76552;SDS011;65395;53.168;18.156;2022-12-29T10:39:45;5.80;;;2.70;;
76552;SDS011;65395;53.168;18.156;2022-12-29T10:45:03;6.80;;;3.10;;
76552;SDS011;65395;53.168;18.156;2022-12-29T10:47:33;6.90;;;3.00;;
76552;SDS011;65395;53.168;18.156;2022-12-29T10:50:04;7.30;;;3.00;;
76552;SDS011;65395;53.168;18.156;2022-12-29T10:52:32;7.40;;;3.20;;
76552;SDS011;65395;53.168;18.156;2022-12-29T10:55:03;5.90;;;3.10;;
76552;SDS011;65395;53.168;18.156;2022-12-29T10:57:37;5.90;;;3.00;;
76552;SDS011;65395;53.168;18.156;2022-12-29T11:00:14;7.80;;;3.50;;
76552;SDS011;65395;53.168;18.156;2022-12-29T11:05:37;7.70;;;3.50;;
76552;SDS011;65395;53.168;18.156;2022-12-29T11:08:13;9.50;;;4.00;;
76552;SDS011;65395;53.168;18.156;2022-12-29T11:10:43;7.20;;;4.30;;
76552;SDS011;65395;53.168;18.156;2022-12-29T11:13:15;7.80;;;3.80;;
76552;SDS011;65395;53.168;18.156;2022-12-29T11:15:46;6.60;;;3.30;;
76552;SDS011;65395;53.168;18.156;2022-12-29T11:18:18;7.40;;;3.30;;
76552;SDS011;65395;53.168;18.156;2022-12-29T11:21:05;8.20;;;3.40;;
76552;SDS011;65395;53.168;18.156;2022-12-29T11:23:36;7.60;;;3.70;;
76552;SDS011;65395;53.168;18.156;2022-12-29T11:28:47;8.40;;;3.70;;
76552;SDS011;65395;53.168;18.156;2022-12-29T11:31:41;7.90;;;3.90;;
76552;SDS011;65395;53.168;18.156;2022-12-29T11:34:18;9.80;;;4.50;;
76552;SDS011;65395;53.168;18.156;2022-12-29T11:36:58;8.50;;;4.00;;
76552;SDS011;65395;53.168;18.156;2022-12-29T11:39:34;7.60;;;3.50;;
76552;SDS011;65395;53.168;18.156;2022-12-29T11:42:12;10.10;;;3.60;;
76552;SDS011;65395;53.168;18.156;2022-12-29T11:44:43;8.80;;;3.80;;
76552;SDS011;65395;53.168;18.156;2022-12-29T11:47:19;10.60;;;3.80;;
76552;SDS011;65395;53.168;18.156;2022-12-29T11:49:53;7.50;;;3.60;;
76552;SDS011;65395;53.168;18.156;2022-12-29T11:52:23;8.10;;;4.10;;
76552;SDS011;65395;53.168;18.156;2022-12-29T11:54:53;9.70;;;4.00;;
76552;SDS011;65395;53.168;18.156;2022-12-29T11:57:22;7.40;;;3.80;;
76552;SDS011;65395;53.168;18.156;2022-12-29T11:59:51;8.60;;;4.50;;
76552;SDS011;65395;53.168;18.156;2022-12-29T12:05:11;5.60;;;3.70;;
76552;SDS011;65395;53.168;18.156;2022-12-29T12:07:46;7.20;;;3.00;;
76552;SDS011;65395;53.168;18.156;2022-12-29T12:10:23;7.40;;;3.30;;
76552;SDS011;65395;53.168;18.156;2022-12-29T12:13:02;6.90;;;3.70;;
76552;SDS011;65395;53.168;18.156;2022-12-29T12:15:36;7.50;;;3.80;;
76552;SDS011;65395;53.168;18.156;2022-12-29T12:18:14;6.40;;;3.70;;
76552;SDS011;65395;53.168;18.156;2022-12-29T12:20:47;7.00;;;3.40;;
76552;SDS011;65395;53.168;18.156;2022-12-29T12:23:22;6.90;;;3.50;;
76552;SDS011;65395;53.168;18.156;2022-12-29T12:26:00;9.10;;;3.90;;
76552;SDS011;65395;53.168;18.156;2022-12-29T12:28:46;9.70;;;3.80;;
76552;SDS011;65395;53.168;18.156;2022-12-29T12:31:27;7.10;;;3.70;;
76552;SDS011;65395;53.168;18.156;2022-12-29T12:34:11;9.00;;;3.80;;
76552;SDS011;65395;53.168;18.156;2022-12-29T12:36:49;8.00;;;4.20;;
76552;SDS011;65395;53.168;18.156;2022-12-29T12:39:34;8.70;;;4.10;;
76552;SDS011;65395;53.168;18.156;2022-12-29T12:51:00;5.20;;;2.50;;
76552;SDS011;65395;53.168;18.156;2022-12-29T12:59:32;5.50;;;2.90;;
76552;SDS011;65395;53.168;18.156;2022-12-29T13:02:21;7.00;;;2.80;;
76552;SDS011;65395;53.168;18.156;2022-12-29T13:11:02;6.80;;;3.10;;
76552;SDS011;65395;53.168;18.156;2022-12-29T13:13:51;5.30;;;2.90;;
76552;SDS011;65395;53.168;18.156;2022-12-29T13:19:29;5.80;;;2.90;;
76552;SDS011;65395;53.168;18.156;2022-12-29T13:22:04;5.70;;;3.00;;
76552;SDS011;65395;53.168;18.156;2022-12-29T13:27:34;4.60;;;2.90;;
76552;SDS011;65395;53.168;18.156;2022-12-29T13:30:13;6.20;;;2.80;;
76552;SDS011;65395;53.168;18.156;2022-12-29T13:32:56;4.90;;;2.50;;
76552;SDS011;65395;53.168;18.156;2022-12-29T13:38:32;6.40;;;2.70;;
76552;SDS011;65395;53.168;18.156;2022-12-29T13:41:05;8.70;;;2.60;;
76552;SDS011;65395;53.168;18.156;2022-12-29T13:43:38;6.90;;;2.80;;
76552;SDS011;65395;53.168;18.156;2022-12-29T13:46:17;7.00;;;2.80;;
76552;SDS011;65395;53.168;18.156;2022-12-29T13:48:53;5.80;;;3.00;;
76552;SDS011;65395;53.168;18.156;2022-12-29T13:51:26;7.50;;;3.10;;
76552;SDS011;65395;53.168;18.156;2022-12-29T13:53:56;5.20;;;2.80;;
76552;SDS011;65395;53.168;18.156;2022-12-29T13:56:48;7.60;;;2.80;;
76552;SDS011;65395;53.168;18.156;2022-12-29T13:59:22;6.20;;;2.70;;
76552;SDS011;65395;53.168;18.156;2022-12-29T14:04:56;6.90;;;2.50;;
76552;SDS011;65395;53.168;18.156;2022-12-29T14:07:25;5.70;;;2.90;;
76552;SDS011;65395;53.168;18.156;2022-12-29T14:09:54;5.60;;;2.70;;
76552;SDS011;65395;53.168;18.156;2022-12-29T14:15:14;6.50;;;2.50;;
76552;SDS011;65395;53.168;18.156;2022-12-29T14:18:00;5.90;;;2.50;;
76552;SDS011;65395;53.168;18.156;2022-12-29T14:20:30;6.10;;;2.80;;
76552;SDS011;65395;53.168;18.156;2022-12-29T14:22:59;8.20;;;3.00;;
76552;SDS011;65395;53.168;18.156;2022-12-29T14:28:25;5.70;;;2.60;;
76552;SDS011;65395;53.168;18.156;2022-12-29T14:31:00;6.40;;;2.90;;
76552;SDS011;65395;53.168;18.156;2022-12-29T14:33:30;4.70;;;2.70;;
76552;SDS011;65395;53.168;18.156;2022-12-29T14:38:45;6.70;;;3.30;;
76552;SDS011;65395;53.168;18.156;2022-12-29T14:41:16;7.60;;;3.40;;
76552;SDS011;65395;53.168;18.156;2022-12-29T14:43:52;9.00;;;3.00;;
76552;SDS011;65395;53.168;18.156;2022-12-29T14:46:21;6.50;;;2.70;;
76552;SDS011;65395;53.168;18.156;2022-12-29T14:48:52;7.50;;;2.60;;
76552;SDS011;65395;53.168;18.156;2022-12-29T14:51:28;5.00;;;3.00;;
76552;SDS011;65395;53.168;18.156;2022-12-29T14:53:58;8.90;;;3.30;;
76552;SDS011;65395;53.168;18.156;2022-12-29T14:56:26;7.30;;;3.20;;
76552;SDS011;65395;53.168;18.156;2022-12-29T14:58:59;8.80;;;3.20;;
76552;SDS011;65395;53.168;18.156;2022-12-29T15:01:34;7.60;;;4.00;;
76552;SDS011;65395;53.168;18.156;2022-12-29T15:04:13;9.30;;;4.40;;
76552;SDS011;65395;53.168;18.156;2022-12-29T15:06:47;9.80;;;4.50;;
76552;SDS011;65395;53.168;18.156;2022-12-29T15:12:00;13.10;;;4.60;;
76552;SDS011;65395;53.168;18.156;2022-12-29T15:14:50;8.60;;;3.70;;
76552;SDS011;65395;53.168;18.156;2022-12-29T15:17:28;10.00;;;3.70;;
76552;SDS011;65395;53.168;18.156;2022-12-29T15:19:58;9.40;;;4.00;;
76552;SDS011;65395;53.168;18.156;2022-12-29T15:22:27;10.30;;;4.00;;
76552;SDS011;65395;53.168;18.156;2022-12-29T15:24:54;13.70;;;4.70;;
76552;SDS011;65395;53.168;18.156;2022-12-29T15:27:24;12.00;;;4.90;;
76552;SDS011;65395;53.168;18.156;2022-12-29T15:29:57;13.90;;;5.10;;
76552;SDS011;65395;53.168;18.156;2022-12-29T15:32:29;13.40;;;5.60;;
76552;SDS011;65395;53.168;18.156;2022-12-29T15:35:21;19.30;;;5.80;;
76552;SDS011;65395;53.168;18.156;2022-12-29T15:37:51;11.70;;;5.10;;
76552;SDS011;65395;53.168;18.156;2022-12-29T15:40:26;13.80;;;5.60;;
76552;SDS011;65395;53.168;18.156;2022-12-29T15:45:39;15.80;;;6.30;;
76552;SDS011;65395;53.168;18.156;2022-12-29T15:48:10;21.30;;;6.40;;
76552;SDS011;65395;53.168;18.156;2022-12-29T15:50:44;20.20;;;6.00;;
76552;SDS011;65395;53.168;18.156;2022-12-29T15:53:14;20.40;;;5.90;;
76552;SDS011;65395;53.168;18.156;2022-12-29T15:55:55;18.50;;;5.50;;
76552;SDS011;65395;53.168;18.156;2022-12-29T15:58:26;18.80;;;5.90;;
76552;SDS011;65395;53.168;18.156;2022-12-29T16:00:56;15.60;;;5.10;;
76552;SDS011;65395;53.168;18.156;2022-12-29T16:03:27;15.20;;;4.80;;
76552;SDS011;65395;53.168;18.156;2022-12-29T16:06:06;10.80;;;4.40;;
76552;SDS011;65395;53.168;18.156;2022-12-29T16:08:37;17.20;;;4.90;;
76552;SDS011;65395;53.168;18.156;2022-12-29T16:11:15;14.50;;;4.70;;
76552;SDS011;65395;53.168;18.156;2022-12-29T16:13:50;14.80;;;4.50;;
76552;SDS011;65395;53.168;18.156;2022-12-29T16:16:20;15.90;;;5.80;;
76552;SDS011;65395;53.168;18.156;2022-12-29T16:18:53;10.00;;;3.30;;
76552;SDS011;65395;53.168;18.156;2022-12-29T16:21:22;5.90;;;2.90;;
76552;SDS011;65395;53.168;18.156;2022-12-29T16:23:52;6.60;;;2.60;;